Time;durP1;ratioP1;P1;durP2;ratioP2;P2;SDS_P1;SDS_P2;PMS_P1;PMS_P2;Temp;Humidity;BMP_temperature;BMP_pressure;BME280_temperature;BME280_humidity;BME280_pressure;Samples;Min_cycle;Max_cycle;Signal;HPM_P1;HPM_P2
2023/03/02 00:02:00;;;;;;;37.33;15.23;;;1.10;99.90;;;;;;5245391;28;20269;-53
2023/03/02 00:04:48;;;;;;;37.60;15.10;;;1.00;99.90;;;;;;5229583;28;20562;-53
2023/03/02 00:07:23;;;;;;;31.80;15.50;;;1.00;99.90;;;;;;5247706;28;20425;-51
2023/03/02 00:09:54;;;;;;;30.90;16.77;;;0.90;99.90;;;;;;5230303;28;20421;-53
2023/03/02 00:12:31;;;;;;;36.47;19.20;;;1.00;99.90;;;;;;5248266;28;20452;-53
2023/03/02 00:15:02;;;;;;;34.17;15.50;;;0.90;99.90;;;;;;5230454;28;20961;-52
2023/03/02 00:17:32;;;;;;;35.00;16.33;;;0.80;99.90;;;;;;5245618;28;20432;-52
2023/03/02 00:20:09;;;;;;;37.70;17.23;;;0.80;99.90;;;;;;5228408;28;20252;-53
2023/03/02 00:22:44;;;;;;;34.57;18.03;;;0.70;99.90;;;;;;5225095;28;20242;-52
2023/03/02 00:25:16;;;;;;;38.37;18.20;;;0.70;99.90;;;;;;5229192;28;20455;-54
2023/03/02 00:27:47;;;;;;;33.43;18.47;;;0.70;99.90;;;;;;5244261;28;20428;-53
2023/03/02 00:30:18;;;;;;;37.73;18.03;;;0.70;99.90;;;;;;5247180;28;20988;-54
2023/03/02 00:32:49;;;;;;;45.03;20.40;;;0.70;99.90;;;;;;5243452;28;20542;-51
2023/03/02 00:35:19;;;;;;;38.40;19.97;;;0.70;99.90;;;;;;5227526;28;20200;-54
2023/03/02 00:37:51;;;;;;;33.77;18.57;;;0.70;99.90;;;;;;5225657;28;20432;-54
2023/03/02 00:40:22;;;;;;;39.93;17.97;;;0.60;99.90;;;;;;5228777;28;20190;-52
2023/03/02 00:42:53;;;;;;;32.27;17.17;;;0.60;99.90;;;;;;5246285;28;20539;-54
2023/03/02 00:45:24;;;;;;;35.50;16.10;;;0.60;99.90;;;;;;5220086;28;20480;-54
2023/03/02 00:47:54;;;;;;;31.50;17.07;;;0.50;99.90;;;;;;5243576;28;20433;-54
2023/03/02 00:50:25;;;;;;;29.60;14.37;;;0.60;99.90;;;;;;5246648;28;20192;-53
2023/03/02 00:52:56;;;;;;;27.83;15.23;;;0.60;99.90;;;;;;5246340;28;20198;-53
2023/03/02 00:55:27;;;;;;;29.73;15.70;;;0.60;99.90;;;;;;5247388;28;20204;-52
2023/03/02 00:57:57;;;;;;;31.83;16.50;;;0.60;99.90;;;;;;5246826;28;20619;-52
2023/03/02 01:00:29;;;;;;;32.73;16.00;;;0.60;99.90;;;;;;5232911;28;20274;-53
2023/03/02 01:03:00;;;;;;;29.00;15.60;;;0.50;99.90;;;;;;5248811;28;20210;-51
2023/03/02 01:05:35;;;;;;;35.27;15.73;;;0.50;99.90;;;;;;5216322;28;20467;-53
2023/03/02 01:08:06;;;;;;;35.47;15.67;;;0.50;99.90;;;;;;5233965;28;20463;-53
2023/03/02 01:10:37;;;;;;;28.27;15.40;;;0.50;99.90;;;;;;5233035;28;20445;-52
2023/03/02 01:13:08;;;;;;;24.93;14.13;;;0.40;99.90;;;;;;5252125;28;20261;-54
2023/03/02 01:15:39;;;;;;;20.77;13.33;;;0.50;99.90;;;;;;5216868;28;20847;-52
2023/03/02 01:18:10;;;;;;;24.23;13.87;;;0.50;99.90;;;;;;5251046;28;20289;-51
2023/03/02 01:20:41;;;;;;;26.00;13.53;;;0.50;99.90;;;;;;5232553;28;20187;-55
2023/03/02 01:23:12;;;;;;;26.53;14.33;;;0.50;99.90;;;;;;5248518;28;20451;-52
2023/03/02 01:25:45;;;;;;;24.97;13.90;;;0.40;99.90;;;;;;5234430;28;20308;-52
2023/03/02 01:28:19;;;;;;;30.13;13.90;;;0.40;99.90;;;;;;5251481;28;20180;-51
2023/03/02 01:30:50;;;;;;;25.63;14.57;;;0.40;99.90;;;;;;5231143;28;20445;-52
2023/03/02 01:33:23;;;;;;;28.13;13.77;;;0.30;99.90;;;;;;5249000;28;20446;-52
2023/03/02 01:35:55;;;;;;;26.37;14.67;;;0.30;99.90;;;;;;5251587;28;20470;-52
2023/03/02 01:38:26;;;;;;;22.63;13.23;;;0.30;99.90;;;;;;5250660;28;20452;-52
2023/03/02 01:40:57;;;;;;;26.57;13.53;;;0.20;99.90;;;;;;5253488;28;20949;-53
2023/03/02 01:43:28;;;;;;;23.30;13.70;;;0.20;99.90;;;;;;5231036;28;20476;-51
2023/03/02 01:46:19;;;;;;;24.50;14.53;;;0.20;99.90;;;;;;5230679;28;20467;-52
2023/03/02 01:48:55;;;;;;;24.40;13.57;;;0.20;99.90;;;;;;5222014;28;20429;-52
2023/03/02 01:51:27;;;;;;;30.23;15.23;;;0.10;99.90;;;;;;5248550;28;20474;-53
2023/03/02 01:54:03;;;;;;;23.77;13.03;;;0.10;99.90;;;;;;5247937;28;20432;-52
2023/03/02 01:56:39;;;;;;;21.00;12.13;;;0.10;99.90;;;;;;5246101;28;20481;-52
2023/03/02 01:59:15;;;;;;;22.37;12.40;;;0.00;99.90;;;;;;5245476;28;20437;-53
2023/03/02 02:01:51;;;;;;;27.73;14.17;;;0.00;99.90;;;;;;5246438;28;20457;-53
2023/03/02 02:04:24;;;;;;;20.70;14.10;;;-0.10;99.90;;;;;;5248625;28;20491;-52
2023/03/02 02:07:02;;;;;;;22.83;13.70;;;-0.10;99.90;;;;;;5245824;28;20528;-55
2023/03/02 02:09:40;;;;;;;24.97;13.57;;;-0.10;99.90;;;;;;5229637;28;20444;-53
2023/03/02 02:12:16;;;;;;;26.40;13.37;;;-0.10;99.90;;;;;;5244588;28;20464;-53
2023/03/02 02:14:48;;;;;;;29.53;13.40;;;-0.10;99.90;;;;;;5232556;28;20440;-52
2023/03/02 02:17:19;;;;;;;30.00;13.40;;;-0.10;99.90;;;;;;5248460;28;20448;-53
2023/03/02 02:20:06;;;;;;;23.00;13.57;;;-0.20;99.90;;;;;;5215040;28;20444;-54
2023/03/02 02:22:50;;;;;;;20.53;13.67;;;-0.20;99.90;;;;;;5248461;28;20848;-53
2023/03/02 02:25:41;;;;;;;25.60;12.33;;;-0.20;99.90;;;;;;5233251;28;20468;-52
2023/03/02 02:28:21;;;;;;;25.20;13.57;;;-0.20;99.90;;;;;;5248347;28;20499;-54
2023/03/02 02:31:17;;;;;;;26.07;14.27;;;-0.20;99.90;;;;;;5246529;28;20432;-53
2023/03/02 02:34:21;;;;;;;31.80;14.23;;;-0.20;99.90;;;;;;5246044;28;20555;-53
2023/03/02 02:37:05;;;;;;;24.20;12.47;;;-0.30;99.90;;;;;;5246545;28;20447;-52
2023/03/02 02:39:40;;;;;;;23.17;13.47;;;-0.30;99.90;;;;;;5229087;28;20791;-52
2023/03/02 02:42:19;;;;;;;24.37;13.17;;;-0.30;99.90;;;;;;5228959;28;20497;-53
2023/03/02 02:44:54;;;;;;;26.50;14.97;;;-0.30;99.90;;;;;;5227858;28;20994;-54
2023/03/02 02:47:26;;;;;;;33.63;14.47;;;-0.30;99.90;;;;;;5244259;28;20442;-52
2023/03/02 02:50:03;;;;;;;27.23;13.13;;;-0.30;99.90;;;;;;5229081;28;21035;-53
2023/03/02 02:52:34;;;;;;;33.07;15.07;;;-0.40;99.90;;;;;;5227659;28;20456;-52
2023/03/02 02:55:13;;;;;;;32.10;15.77;;;-0.40;99.90;;;;;;5241953;28;20472;-54
2023/03/02 02:57:44;;;;;;;28.60;15.17;;;-0.40;99.90;;;;;;5228214;28;20439;-52
2023/03/02 03:00:18;;;;;;;26.27;14.10;;;-0.40;99.90;;;;;;5226412;28;20432;-54
2023/03/02 03:03:28;;;;;;;28.23;15.27;;;-0.40;99.90;;;;;;5225015;28;20460;-52
2023/03/02 03:06:03;;;;;;;26.40;13.33;;;-0.50;99.90;;;;;;5227867;28;20829;-53
2023/03/02 03:08:40;;;;;;;33.60;14.77;;;-0.60;99.90;;;;;;5202240;28;20437;-52
2023/03/02 03:11:13;;;;;;;33.77;15.93;;;-0.60;99.90;;;;;;5242384;28;20440;-52
2023/03/02 03:13:46;;;;;;;23.30;14.60;;;-0.60;99.90;;;;;;5210008;28;20491;-54
2023/03/02 03:16:17;;;;;;;42.27;16.47;;;-0.60;99.90;;;;;;5240704;28;20438;-52
2023/03/02 03:18:50;;;;;;;23.97;13.90;;;-0.50;99.90;;;;;;5223371;28;20425;-51
2023/03/02 03:21:21;;;;;;;32.77;15.30;;;-0.50;99.90;;;;;;5227723;28;20436;-52
2023/03/02 03:23:52;;;;;;;26.50;15.40;;;-0.60;99.90;;;;;;5226268;28;20436;-52
2023/03/02 03:26:26;;;;;;;27.47;15.73;;;-0.60;99.90;;;;;;5226692;28;20440;-51
2023/03/02 03:28:57;;;;;;;27.07;15.37;;;-0.60;99.90;;;;;;5238083;28;20466;-53
2023/03/02 03:31:28;;;;;;;21.57;13.83;;;-0.70;99.90;;;;;;5243692;28;20451;-52
2023/03/02 03:34:00;;;;;;;31.60;12.43;;;-0.70;99.90;;;;;;5241985;28;20794;-52
2023/03/02 03:36:32;;;;;;;28.77;13.63;;;-0.80;99.90;;;;;;5242278;28;20448;-52
2023/03/02 03:39:05;;;;;;;33.23;15.60;;;-0.80;99.90;;;;;;5223136;28;20450;-53
2023/03/02 03:41:36;;;;;;;25.40;14.63;;;-0.80;99.90;;;;;;5244064;28;20425;-53
2023/03/02 03:44:08;;;;;;;32.90;16.80;;;-0.80;99.90;;;;;;5223408;28;20532;-52
2023/03/02 03:46:39;;;;;;;26.00;14.67;;;-0.80;99.90;;;;;;5223875;28;20452;-53
2023/03/02 03:49:10;;;;;;;28.50;15.77;;;-0.80;99.90;;;;;;5222501;28;20449;-51
2023/03/02 03:51:44;;;;;;;37.07;17.43;;;-0.80;99.90;;;;;;5224762;28;20256;-52
2023/03/02 03:54:15;;;;;;;29.40;16.80;;;-0.80;99.90;;;;;;5241573;28;20474;-54
2023/03/02 03:56:48;;;;;;;30.20;15.60;;;-0.80;99.90;;;;;;5240629;28;20456;-53
2023/03/02 03:59:22;;;;;;;25.20;15.67;;;-0.70;99.90;;;;;;5220572;28;20437;-53
2023/03/02 04:02:07;;;;;;;29.37;16.17;;;-0.70;99.90;;;;;;5229752;28;21119;-52
2023/03/02 04:04:41;;;;;;;30.43;16.03;;;-0.80;99.90;;;;;;5228415;28;20468;-51
2023/03/02 04:07:13;;;;;;;34.13;16.70;;;-0.80;99.90;;;;;;5245245;28;20436;-53
2023/03/02 04:09:44;;;;;;;29.90;16.40;;;-0.80;99.90;;;;;;5230750;28;20439;-52
2023/03/02 04:12:18;;;;;;;29.23;15.73;;;-0.80;99.90;;;;;;5228617;28;20448;-53
2023/03/02 04:14:49;;;;;;;28.90;14.87;;;-0.90;99.90;;;;;;5230844;28;20479;-53
2023/03/02 04:17:21;;;;;;;27.50;15.57;;;-0.90;99.90;;;;;;5230684;28;20486;-53
2023/03/02 04:19:55;;;;;;;27.37;16.40;;;-0.90;99.90;;;;;;5230860;28;20435;-53
2023/03/02 04:22:26;;;;;;;29.00;15.63;;;-0.90;99.90;;;;;;5247351;28;20457;-53
2023/03/02 04:25:00;;;;;;;30.77;15.53;;;-0.90;99.90;;;;;;5247633;28;20503;-52
2023/03/02 04:27:34;;;;;;;26.83;16.17;;;-0.90;99.90;;;;;;5245850;28;20478;-53
2023/03/02 04:30:06;;;;;;;30.57;15.60;;;-0.90;99.90;;;;;;5227385;28;20463;-53
2023/03/02 04:32:39;;;;;;;30.83;15.70;;;-0.90;99.90;;;;;;5228875;28;20448;-54
2023/03/02 04:35:12;;;;;;;37.30;18.17;;;-0.90;99.90;;;;;;5227545;28;20449;-52
2023/03/02 04:37:43;;;;;;;31.90;16.30;;;-0.90;99.90;;;;;;5247978;28;20428;-50
2023/03/02 04:40:16;;;;;;;28.50;16.80;;;-0.90;99.90;;;;;;5247713;28;20441;-52
2023/03/02 04:42:47;;;;;;;29.63;17.40;;;-0.90;99.90;;;;;;5249739;28;20475;-52
2023/03/02 04:45:18;;;;;;;27.97;15.70;;;-0.90;99.90;;;;;;5246645;28;20460;-52
2023/03/02 04:47:55;;;;;;;27.70;16.27;;;-0.90;99.90;;;;;;5242859;28;20185;-51
2023/03/02 04:50:26;;;;;;;34.10;16.57;;;-0.90;99.90;;;;;;5248715;28;20464;-53
2023/03/02 04:52:59;;;;;;;32.67;19.53;;;-1.00;99.90;;;;;;5231791;28;20472;-54
2023/03/02 04:55:42;;;;;;;38.53;19.50;;;-0.90;99.90;;;;;;5232198;28;23308;-54
2023/03/02 04:58:16;;;;;;;38.70;18.27;;;-1.00;99.90;;;;;;5231391;28;20436;-53
2023/03/02 05:00:52;;;;;;;33.10;18.30;;;-1.00;99.90;;;;;;5246705;28;20439;-52
2023/03/02 05:03:23;;;;;;;34.30;18.57;;;-1.00;99.90;;;;;;5231594;28;20487;-53
2023/03/02 05:05:56;;;;;;;35.40;18.10;;;-1.00;99.90;;;;;;5233846;28;20492;-53
2023/03/02 05:08:30;;;;;;;36.90;21.07;;;-1.10;99.90;;;;;;5250150;28;21458;-53
2023/03/02 05:11:02;;;;;;;49.13;22.97;;;-1.10;99.90;;;;;;5250676;28;20424;-52
2023/03/02 05:13:37;;;;;;;49.20;23.50;;;-1.00;99.90;;;;;;5246978;28;20543;-52
2023/03/02 05:16:08;;;;;;;43.40;22.47;;;-1.10;99.90;;;;;;5242909;28;20845;-52
2023/03/02 05:18:39;;;;;;;45.37;24.30;;;-1.10;99.90;;;;;;5217893;28;20482;-51
2023/03/02 05:21:11;;;;;;;42.80;23.03;;;-1.00;99.90;;;;;;5246906;28;20531;-52
2023/03/02 05:23:43;;;;;;;43.37;23.07;;;-1.00;99.90;;;;;;5248119;28;20468;-54
2023/03/02 05:26:18;;;;;;;54.80;25.17;;;-1.00;99.90;;;;;;5212461;28;20490;-51
2023/03/02 05:28:54;;;;;;;50.40;25.27;;;-1.10;99.90;;;;;;5249108;28;20480;-50
2023/03/02 05:31:34;;;;;;;53.20;24.40;;;-1.10;99.90;;;;;;5224702;28;20438;-50
2023/03/02 05:34:13;;;;;;;47.33;24.07;;;-1.10;99.90;;;;;;5244267;28;20441;-51
2023/03/02 05:36:44;;;;;;;46.87;23.77;;;-1.00;99.90;;;;;;5230189;28;20439;-52
2023/03/02 05:39:18;;;;;;;60.03;25.47;;;-1.10;99.90;;;;;;5229996;28;20444;-50
2023/03/02 05:41:49;;;;;;;48.30;22.40;;;-1.10;99.90;;;;;;5239957;28;20459;-52
2023/03/02 05:44:29;;;;;;;46.77;24.00;;;-1.10;99.90;;;;;;5227008;28;20829;-51
2023/03/02 05:47:00;;;;;;;48.33;23.03;;;-1.20;99.90;;;;;;5248619;28;23178;-52
2023/03/02 05:49:31;;;;;;;52.20;23.33;;;-1.20;99.90;;;;;;5241662;28;20807;-52
2023/03/02 05:52:02;;;;;;;49.40;23.53;;;-1.20;99.90;;;;;;5241325;28;21016;-52
2023/03/02 05:54:42;;;;;;;51.37;24.70;;;-1.30;99.90;;;;;;5231485;28;20622;-52
2023/03/02 05:57:13;;;;;;;55.83;23.37;;;-1.30;99.90;;;;;;5230200;28;20952;-50
2023/03/02 05:59:49;;;;;;;61.73;28.37;;;-1.40;99.90;;;;;;5239114;28;20455;-52
2023/03/02 06:02:20;;;;;;;93.70;29.17;;;-1.50;99.90;;;;;;5248149;28;20452;-53
2023/03/02 06:05:12;;;;;;;59.43;26.97;;;-1.60;99.90;;;;;;5248985;28;20963;-52
2023/03/02 06:07:49;;;;;;;77.63;29.17;;;-1.70;99.90;;;;;;5245121;28;20199;-51
2023/03/02 06:10:33;;;;;;;66.27;29.50;;;-1.70;99.90;;;;;;5242862;28;20525;-51
2023/03/02 06:13:04;;;;;;;95.87;29.83;;;-1.80;99.90;;;;;;5229836;28;20452;-52
2023/03/02 06:15:35;;;;;;;73.30;29.50;;;-1.80;99.90;;;;;;5210967;28;20444;-53
2023/03/02 06:18:07;;;;;;;59.50;28.47;;;-1.80;99.90;;;;;;5247678;28;20933;-52
2023/03/02 06:20:38;;;;;;;81.87;27.20;;;-1.80;99.90;;;;;;5229626;28;20444;-51
2023/03/02 06:23:30;;;;;;;66.30;27.83;;;-1.80;99.90;;;;;;5229893;28;20453;-52
2023/03/02 06:26:10;;;;;;;66.07;23.90;;;-1.70;99.90;;;;;;5229102;28;20963;-53
2023/03/02 06:28:41;;;;;;;86.70;28.63;;;-1.50;99.90;;;;;;5246807;28;20527;-53
2023/03/02 06:31:12;;;;;;;74.33;24.50;;;-1.70;99.90;;;;;;5248094;28;20445;-52
2023/03/02 06:33:43;;;;;;;70.60;26.73;;;-1.40;99.90;;;;;;5247432;28;20453;-53
2023/03/02 06:36:15;;;;;;;76.87;29.47;;;-1.60;99.90;;;;;;5246072;28;20185;-53
2023/03/02 06:38:46;;;;;;;82.97;31.10;;;-1.70;99.90;;;;;;5231362;28;20193;-54
2023/03/02 06:41:17;;;;;;;80.87;31.43;;;-1.80;99.90;;;;;;5230326;28;20638;-53
2023/03/02 06:43:48;;;;;;;74.73;30.00;;;-1.70;99.90;;;;;;5225012;28;20584;-53
2023/03/02 06:46:19;;;;;;;84.43;32.73;;;-1.70;99.90;;;;;;5228958;28;20213;-53
2023/03/02 06:48:50;;;;;;;90.77;28.63;;;-1.70;99.90;;;;;;5221250;28;20586;-53
2023/03/02 06:51:21;;;;;;;74.30;28.93;;;-1.50;99.90;;;;;;5247626;28;20479;-53
2023/03/02 06:53:56;;;;;;;86.83;28.33;;;-1.40;99.90;;;;;;5226855;28;20202;-54
2023/03/02 06:56:28;;;;;;;60.53;24.60;;;-1.30;99.90;;;;;;5246178;28;20477;-54
2023/03/02 06:58:58;;;;;;;59.30;25.07;;;-1.10;99.90;;;;;;5228605;28;20523;-53
2023/03/02 07:01:42;;;;;;;66.20;26.27;;;-0.90;99.90;;;;;;5247274;28;20449;-52
2023/03/02 07:04:13;;;;;;;66.20;25.30;;;-0.80;99.90;;;;;;5224541;28;20463;-54
2023/03/02 07:06:44;;;;;;;50.80;22.80;;;-1.00;99.90;;;;;;5244182;28;20432;-53
2023/03/02 07:09:14;;;;;;;56.93;22.47;;;-1.00;99.90;;;;;;5225079;28;20651;-54
2023/03/02 07:11:45;;;;;;;71.27;24.40;;;-1.20;99.90;;;;;;5245742;28;20992;-54
2023/03/02 07:14:17;;;;;;;64.87;24.27;;;-1.30;99.90;;;;;;5246508;28;20199;-54
2023/03/02 07:16:50;;;;;;;57.70;23.47;;;-1.40;99.90;;;;;;5245836;28;20495;-53
2023/03/02 07:19:25;;;;;;;79.87;27.67;;;-1.50;99.90;;;;;;5244696;28;20510;-53
2023/03/02 07:21:56;;;;;;;76.20;26.40;;;-1.40;99.90;;;;;;5230383;28;20509;-54
2023/03/02 07:24:30;;;;;;;69.37;25.37;;;-1.30;99.90;;;;;;5242883;28;20875;-53
2023/03/02 07:27:01;;;;;;;64.20;26.47;;;-1.30;99.90;;;;;;5229009;28;20184;-53
2023/03/02 07:29:37;;;;;;;85.77;26.53;;;-1.20;99.90;;;;;;5248270;28;21656;-53
2023/03/02 07:32:12;;;;;;;64.43;25.20;;;-1.20;99.90;;;;;;5246402;28;20577;-54
2023/03/02 07:34:56;;;;;;;70.53;25.03;;;-1.00;99.90;;;;;;5228076;28;20756;-52
2023/03/02 07:37:27;;;;;;;81.83;25.10;;;-0.80;99.90;;;;;;5225259;28;20436;-51
2023/03/02 07:40:02;;;;;;;65.47;25.77;;;-0.60;99.90;;;;;;5245790;28;20427;-53
2023/03/02 07:42:33;;;;;;;57.63;22.90;;;-0.50;99.90;;;;;;5241690;22;20221;-53
2023/03/02 07:45:04;;;;;;;66.40;24.07;;;-0.20;99.90;;;;;;5236047;28;20464;-53
2023/03/02 07:47:35;;;;;;;46.73;22.37;;;-0.20;99.90;;;;;;5234297;28;20194;-54
2023/03/02 07:50:06;;;;;;;54.53;23.07;;;-0.20;99.90;;;;;;5241829;28;20426;-55
2023/03/02 07:52:37;;;;;;;76.37;23.97;;;-0.10;99.90;;;;;;5218219;28;20202;-53
2023/03/02 07:55:08;;;;;;;53.00;22.63;;;0.00;99.90;;;;;;5232876;28;20439;-53
2023/03/02 07:57:39;;;;;;;56.90;24.30;;;-0.10;99.90;;;;;;5241925;28;20186;-48
2023/03/02 08:00:10;;;;;;;75.00;26.10;;;-0.30;99.90;;;;;;5239241;28;20444;-49
2023/03/02 08:02:41;;;;;;;57.80;24.07;;;-0.30;99.90;;;;;;5244344;28;20235;-47
2023/03/02 08:05:13;;;;;;;71.00;25.53;;;-0.20;99.90;;;;;;5233961;28;20533;-49
2023/03/02 08:07:45;;;;;;;53.27;24.40;;;-0.30;99.90;;;;;;5236895;28;20432;-51
2023/03/02 08:10:16;;;;;;;55.80;25.23;;;-0.20;99.90;;;;;;5241056;28;20421;-52
2023/03/02 08:12:47;;;;;;;48.90;24.70;;;-0.10;99.90;;;;;;5225994;28;20445;-56
2023/03/02 08:15:17;;;;;;;52.67;23.73;;;-0.10;99.90;;;;;;5233944;28;20216;-50
2023/03/02 08:17:48;;;;;;;51.27;23.63;;;0.10;99.90;;;;;;5239756;28;20186;-51
2023/03/02 08:20:19;;;;;;;51.10;24.00;;;0.50;99.90;;;;;;5241522;28;20182;-50
2023/03/02 08:22:50;;;;;;;51.87;23.10;;;1.00;99.90;;;;;;5245212;28;20209;-52
2023/03/02 08:25:21;;;;;;;51.37;23.10;;;1.40;99.90;;;;;;5236178;28;20245;-51
2023/03/02 08:27:51;;;;;;;45.67;21.77;;;1.30;99.90;;;;;;5245401;28;20462;-50
2023/03/02 08:30:22;;;;;;;48.93;20.50;;;1.30;99.90;;;;;;5242420;28;21468;-51
2023/03/02 08:32:53;;;;;;;45.70;21.70;;;0.70;99.90;;;;;;5239851;28;20229;-51
2023/03/02 08:35:23;;;;;;;55.93;22.87;;;0.50;99.90;;;;;;5241183;28;20187;-50
2023/03/02 08:37:54;;;;;;;51.13;22.20;;;0.10;99.90;;;;;;5239742;28;20763;-53
2023/03/02 08:40:25;;;;;;;93.37;25.07;;;0.20;99.90;;;;;;5233995;28;20186;-52
2023/03/02 08:42:56;;;;;;;49.40;21.93;;;0.00;99.90;;;;;;5242889;28;20272;-51
2023/03/02 08:45:27;;;;;;;57.37;25.07;;;0.00;99.90;;;;;;5238333;28;21143;-51
2023/03/02 08:47:58;;;;;;;57.27;23.60;;;-0.10;99.90;;;;;;5238520;28;20827;-50
2023/03/02 08:50:28;;;;;;;49.83;23.67;;;-0.10;99.90;;;;;;5245860;28;20182;-50
2023/03/02 08:52:59;;;;;;;61.63;25.50;;;-0.30;99.90;;;;;;5240648;28;20217;-49
2023/03/02 08:55:33;;;;;;;52.80;24.63;;;-0.50;99.90;;;;;;5236489;28;20302;-50
2023/03/02 08:58:03;;;;;;;50.63;23.80;;;-0.40;99.90;;;;;;5246530;28;20193;-50
2023/03/02 09:00:34;;;;;;;45.83;23.60;;;-0.10;99.90;;;;;;5246989;28;20436;-51
2023/03/02 09:03:04;;;;;;;57.97;21.87;;;0.00;99.90;;;;;;5246261;28;20203;-50
2023/03/02 09:05:35;;;;;;;45.70;21.07;;;0.40;99.90;;;;;;5247615;28;20746;-51
2023/03/02 09:08:06;;;;;;;39.00;19.70;;;0.50;99.90;;;;;;5224726;28;20186;-51
2023/03/02 09:10:37;;;;;;;43.83;22.03;;;0.50;99.90;;;;;;5241517;28;20199;-50
2023/03/02 09:13:08;;;;;;;42.90;21.43;;;0.50;99.90;;;;;;5242776;28;20445;-50
2023/03/02 09:15:39;;;;;;;43.83;22.30;;;0.50;99.90;;;;;;5238920;28;20431;-51
2023/03/02 09:18:09;;;;;;;47.43;23.33;;;0.40;99.90;;;;;;5241954;28;20182;-52
2023/03/02 09:20:40;;;;;;;51.13;22.57;;;0.30;99.90;;;;;;5243239;28;20186;-50
2023/03/02 09:23:12;;;;;;;46.63;23.40;;;0.60;99.90;;;;;;5246348;28;20213;-53
2023/03/02 09:25:43;;;;;;;41.43;21.70;;;0.70;99.90;;;;;;5240333;28;20194;-50
2023/03/02 09:28:14;;;;;;;32.40;18.87;;;0.90;99.90;;;;;;5237430;28;20479;-49
2023/03/02 09:30:53;;;;;;;48.50;24.10;;;1.30;99.90;;;;;;5238546;28;20188;-49
2023/03/02 09:33:24;;;;;;;50.80;19.13;;;1.70;99.90;;;;;;5238021;28;20809;-51
2023/03/02 09:35:55;;;;;;;36.50;19.00;;;1.50;99.90;;;;;;5241505;28;20925;-51
2023/03/02 09:38:26;;;;;;;33.00;18.47;;;1.20;99.90;;;;;;5240945;28;20436;-50
2023/03/02 09:41:15;;;;;;;37.27;20.60;;;1.00;99.90;;;;;;5223494;28;20201;-51
2023/03/02 09:44:36;;;;;;;47.33;23.40;;;0.50;99.90;;;;;;5234783;28;20471;-50
2023/03/02 09:47:14;;;;;;;44.97;20.43;;;0.40;99.90;;;;;;5173973;28;20765;-51
2023/03/02 09:49:52;;;;;;;35.53;20.13;;;0.60;99.90;;;;;;5239060;28;20432;-49
2023/03/02 09:52:34;;;;;;;43.37;21.73;;;0.60;99.90;;;;;;5242669;28;20625;-49
2023/03/02 09:55:33;;;;;;;41.40;20.47;;;0.60;99.90;;;;;;5235984;28;20457;-52
2023/03/02 09:58:14;;;;;;;39.87;20.90;;;0.40;99.90;;;;;;5238476;28;20471;-50
2023/03/02 10:00:45;;;;;;;46.07;22.20;;;0.50;99.90;;;;;;5243834;28;20523;-49
2023/03/02 10:03:21;;;;;;;40.37;23.07;;;0.30;99.90;;;;;;5239479;28;20495;-50
2023/03/02 10:05:53;;;;;;;44.47;22.57;;;0.30;99.90;;;;;;5239434;28;20539;-50
2023/03/02 10:08:29;;;;;;;37.10;20.97;;;0.60;99.90;;;;;;5244111;28;20435;-51
2023/03/02 10:11:12;;;;;;;33.10;18.40;;;0.70;99.90;;;;;;5242385;28;20570;-50
2023/03/02 10:13:53;;;;;;;41.93;19.80;;;1.10;99.90;;;;;;5237878;28;20463;-50
2023/03/02 10:16:40;;;;;;;37.00;19.07;;;1.20;99.90;;;;;;5231723;28;20438;-49
2023/03/02 10:19:14;;;;;;;43.13;19.43;;;1.20;99.90;;;;;;5238833;28;20445;-50
2023/03/02 10:21:49;;;;;;;40.70;19.77;;;1.00;99.90;;;;;;5242308;28;20434;-49
2023/03/02 10:24:25;;;;;;;33.87;19.47;;;0.80;99.90;;;;;;5237893;28;20824;-49
2023/03/02 10:27:24;;;;;;;33.80;18.73;;;1.20;99.90;;;;;;5236407;28;20893;-49
2023/03/02 10:30:06;;;;;;;35.93;20.20;;;1.50;99.90;;;;;;5230348;28;20494;-48
2023/03/02 10:32:42;;;;;;;40.43;18.37;;;1.90;99.90;;;;;;5243901;28;20458;-49
2023/03/02 10:35:17;;;;;;;28.73;17.27;;;1.80;99.90;;;;;;5242620;28;20447;-52
2023/03/02 10:37:50;;;;;;;27.93;16.60;;;1.80;99.90;;;;;;5233949;28;20514;-50
2023/03/02 10:40:42;;;;;;;36.23;18.50;;;1.50;99.90;;;;;;5241672;28;20454;-50
2023/03/02 10:43:22;;;;;;;30.50;16.70;;;1.20;99.90;;;;;;5244183;28;23258;-47
2023/03/02 10:46:06;;;;;;;45.87;19.30;;;1.10;99.90;;;;;;5238998;28;20463;-49
2023/03/02 10:49:22;;;;;;;37.90;18.50;;;0.90;99.90;;;;;;5237068;28;20438;-47
2023/03/02 10:52:14;;;;;;;52.93;18.30;;;1.10;99.90;;;;;;5231758;28;20436;-48
2023/03/02 10:54:46;;;;;;;31.70;16.63;;;1.40;99.90;;;;;;5242955;28;20927;-50
2023/03/02 10:57:36;;;;;;;30.20;16.30;;;1.60;99.90;;;;;;5237696;28;20793;-49
2023/03/02 11:00:21;;;;;;;30.70;15.97;;;1.70;99.90;;;;;;5238036;28;20972;-50
2023/03/02 11:02:55;;;;;;;31.67;17.60;;;1.70;99.90;;;;;;5234633;28;20455;-50
2023/03/02 11:05:30;;;;;;;30.70;17.80;;;1.60;99.90;;;;;;5234575;28;20650;-50
2023/03/02 11:08:08;;;;;;;27.77;16.13;;;1.60;99.90;;;;;;5234995;28;20534;-51
2023/03/02 11:10:50;;;;;;;29.17;16.00;;;1.70;99.90;;;;;;5244434;28;20490;-51
2023/03/02 11:13:28;;;;;;;26.37;13.73;;;1.70;99.90;;;;;;5240387;28;20463;-52
2023/03/02 11:16:01;;;;;;;28.83;14.33;;;1.60;99.90;;;;;;5235629;28;20584;-50
2023/03/02 11:18:44;;;;;;;24.40;14.07;;;2.00;99.90;;;;;;5236991;28;20519;-50
2023/03/02 11:21:23;;;;;;;24.90;13.77;;;2.20;99.90;;;;;;5237111;28;20843;-50
2023/03/02 11:24:15;;;;;;;25.43;15.00;;;2.30;99.90;;;;;;5237567;28;20459;-52
2023/03/02 11:26:52;;;;;;;25.80;15.30;;;2.10;99.90;;;;;;5241394;28;20429;-50
2023/03/02 11:29:48;;;;;;;34.20;15.93;;;1.80;99.90;;;;;;5241987;28;20420;-49
2023/03/02 11:32:21;;;;;;;27.00;17.20;;;1.50;99.90;;;;;;5237422;28;20460;-50
2023/03/02 11:35:09;;;;;;;29.33;17.40;;;1.50;99.90;;;;;;5240202;28;20443;-48
2023/03/02 11:37:51;;;;;;;35.10;17.73;;;1.60;99.90;;;;;;5236701;28;20817;-49
2023/03/02 11:40:50;;;;;;;29.33;16.50;;;1.80;99.90;;;;;;5232067;28;20440;-49
2023/03/02 11:43:20;;;;;;;31.70;16.50;;;1.90;99.90;;;;;;5236493;28;20508;-50
2023/03/02 11:46:02;;;;;;;32.80;16.97;;;1.90;99.90;;;;;;5236247;28;20556;-50
2023/03/02 11:48:40;;;;;;;29.83;16.93;;;1.70;99.90;;;;;;5239130;28;20768;-51
2023/03/02 11:51:13;;;;;;;33.50;18.37;;;1.90;99.90;;;;;;5236356;28;20440;-52
2023/03/02 11:54:01;;;;;;;35.20;19.30;;;1.70;99.90;;;;;;5237947;28;20464;-53
2023/03/02 11:56:35;;;;;;;40.43;17.83;;;1.50;99.90;;;;;;5237756;28;20437;-50
2023/03/02 11:59:14;;;;;;;30.07;16.50;;;1.60;99.90;;;;;;5242163;28;20926;-49
2023/03/02 12:01:50;;;;;;;31.43;17.60;;;2.00;99.90;;;;;;5253545;28;20426;-50
2023/03/02 12:04:37;;;;;;;29.70;17.60;;;2.00;99.90;;;;;;5241525;28;20448;-48
2023/03/02 12:07:23;;;;;;;37.03;17.03;;;2.20;99.90;;;;;;5225173;28;20574;-48
2023/03/02 12:10:01;;;;;;;26.30;15.10;;;2.10;99.90;;;;;;5240044;28;20468;-49
2023/03/02 12:12:37;;;;;;;31.53;16.73;;;2.00;99.90;;;;;;5242657;28;20452;-50
2023/03/02 12:15:35;;;;;;;27.70;14.90;;;2.10;99.90;;;;;;5245272;28;20423;-50
2023/03/02 12:18:42;;;;;;;36.73;15.70;;;1.90;99.90;;;;;;5238815;28;20439;-48
2023/03/02 12:21:17;;;;;;;24.97;15.27;;;1.80;99.90;;;;;;5236201;28;20423;-52
2023/03/02 12:23:47;;;;;;;30.00;17.07;;;1.70;99.90;;;;;;5241061;28;20452;-52
2023/03/02 12:26:18;;;;;;;29.20;17.07;;;1.70;99.90;;;;;;5239209;28;21282;-51
2023/03/02 12:29:10;;;;;;;30.30;16.47;;;1.80;99.90;;;;;;5243607;28;20228;-53
2023/03/02 12:31:46;;;;;;;29.90;16.40;;;1.90;99.90;;;;;;5242152;28;20192;-54
2023/03/02 12:34:23;;;;;;;29.37;16.93;;;2.00;99.90;;;;;;5238819;28;20455;-52
2023/03/02 12:36:58;;;;;;;27.70;15.10;;;2.10;99.90;;;;;;5244096;28;20431;-53
2023/03/02 12:40:06;;;;;;;28.10;15.23;;;2.20;99.90;;;;;;5241377;28;20764;-54
2023/03/02 12:42:49;;;;;;;26.00;14.30;;;2.20;99.90;;;;;;5241815;28;20565;-52
2023/03/02 12:45:29;;;;;;;23.80;14.37;;;2.20;99.90;;;;;;5238332;28;20526;-51
2023/03/02 12:48:41;;;;;;;31.40;15.47;;;2.00;99.90;;;;;;5242413;28;20435;-48
2023/03/02 12:51:21;;;;;;;32.00;16.53;;;2.00;99.90;;;;;;5246167;28;20512;-51
2023/03/02 12:54:11;;;;;;;25.07;16.23;;;2.00;99.90;;;;;;5239575;28;20459;-49
2023/03/02 12:56:42;;;;;;;26.30;16.10;;;2.10;99.90;;;;;;5244539;28;20793;-50
2023/03/02 12:59:24;;;;;;;33.70;16.03;;;2.20;99.90;;;;;;5240567;28;20450;-53
2023/03/02 13:02:13;;;;;;;28.90;14.87;;;2.20;99.90;;;;;;5246404;28;20932;-48
2023/03/02 13:04:50;;;;;;;31.70;16.43;;;2.20;99.90;;;;;;5245129;28;20467;-49
2023/03/02 13:07:27;;;;;;;24.67;15.13;;;2.20;99.90;;;;;;5232605;28;20443;-50
2023/03/02 13:09:58;;;;;;;25.87;14.10;;;2.40;99.90;;;;;;5242539;28;20432;-49
2023/03/02 13:12:29;;;;;;;30.13;14.53;;;2.40;99.90;;;;;;5243237;28;20508;-54
2023/03/02 13:15:00;;;;;;;21.40;14.03;;;2.40;99.90;;;;;;5242904;28;20841;-51
2023/03/02 13:17:31;;;;;;;30.30;15.10;;;2.50;99.90;;;;;;5243252;28;20199;-51